sensor_id;sensor_type;location;lat;lon;timestamp;P1;durP1;ratioP1;P2;durP2;ratioP2
10347;SDS011;5220;43.192;23.284;2023-07-31T00:02:19;3.25;;;2.95;;
10347;SDS011;5220;43.192;23.284;2023-07-31T00:04:46;3.10;;;2.90;;
10347;SDS011;5220;43.192;23.284;2023-07-31T00:07:14;3.22;;;2.92;;
10347;SDS011;5220;43.192;23.284;2023-07-31T00:09:42;3.28;;;2.92;;
10347;SDS011;5220;43.192;23.284;2023-07-31T00:12:08;3.50;;;3.03;;
10347;SDS011;5220;43.192;23.284;2023-07-31T00:14:35;3.50;;;3.20;;
10347;SDS011;5220;43.192;23.284;2023-07-31T00:17:02;3.50;;;3.20;;
10347;SDS011;5220;43.192;23.284;2023-07-31T00:19:29;3.58;;;3.08;;
10347;SDS011;5220;43.192;23.284;2023-07-31T00:21:56;3.88;;;3.58;;
10347;SDS011;5220;43.192;23.284;2023-07-31T00:24:22;3.67;;;3.38;;
10347;SDS011;5220;43.192;23.284;2023-07-31T00:26:50;3.92;;;3.60;;
10347;SDS011;5220;43.192;23.284;2023-07-31T00:29:17;4.68;;;3.63;;
10347;SDS011;5220;43.192;23.284;2023-07-31T00:31:44;3.80;;;3.47;;
10347;SDS011;5220;43.192;23.284;2023-07-31T00:34:10;3.63;;;3.33;;
10347;SDS011;5220;43.192;23.284;2023-07-31T00:36:37;3.35;;;3.15;;
10347;SDS011;5220;43.192;23.284;2023-07-31T00:39:04;4.03;;;3.40;;
10347;SDS011;5220;43.192;23.284;2023-07-31T00:41:30;3.50;;;3.30;;
10347;SDS011;5220;43.192;23.284;2023-07-31T00:43:59;3.70;;;3.40;;
10347;SDS011;5220;43.192;23.284;2023-07-31T00:46:25;4.28;;;3.08;;
10347;SDS011;5220;43.192;23.284;2023-07-31T00:48:52;3.70;;;3.40;;
10347;SDS011;5220;43.192;23.284;2023-07-31T00:51:19;5.68;;;3.78;;
10347;SDS011;5220;43.192;23.284;2023-07-31T00:53:45;3.20;;;3.00;;
10347;SDS011;5220;43.192;23.284;2023-07-31T00:56:13;3.85;;;3.53;;
10347;SDS011;5220;43.192;23.284;2023-07-31T00:58:40;3.25;;;3.05;;
10347;SDS011;5220;43.192;23.284;2023-07-31T01:01:08;3.25;;;2.95;;
10347;SDS011;5220;43.192;23.284;2023-07-31T01:03:35;3.90;;;3.50;;
10347;SDS011;5220;43.192;23.284;2023-07-31T01:06:06;3.10;;;2.90;;
10347;SDS011;5220;43.192;23.284;2023-07-31T01:08:41;2.97;;;2.78;;
10347;SDS011;5220;43.192;23.284;2023-07-31T01:11:15;3.38;;;3.08;;
10347;SDS011;5220;43.192;23.284;2023-07-31T01:13:45;3.47;;;3.13;;
10347;SDS011;5220;43.192;23.284;2023-07-31T01:16:14;3.42;;;3.13;;
10347;SDS011;5220;43.192;23.284;2023-07-31T01:18:41;3.33;;;3.13;;
10347;SDS011;5220;43.192;23.284;2023-07-31T01:21:13;3.22;;;3.03;;
10347;SDS011;5220;43.192;23.284;2023-07-31T01:24:03;3.03;;;2.83;;
10347;SDS011;5220;43.192;23.284;2023-07-31T01:26:53;3.47;;;2.97;;
10347;SDS011;5220;43.192;23.284;2023-07-31T01:29:26;7.15;;;3.60;;
10347;SDS011;5220;43.192;23.284;2023-07-31T01:31:59;3.53;;;3.22;;
10347;SDS011;5220;43.192;23.284;2023-07-31T01:34:28;3.65;;;3.42;;
10347;SDS011;5220;43.192;23.284;2023-07-31T01:36:56;4.10;;;3.30;;
10347;SDS011;5220;43.192;23.284;2023-07-31T01:39:23;3.88;;;3.58;;
10347;SDS011;5220;43.192;23.284;2023-07-31T01:41:50;4.28;;;3.90;;
10347;SDS011;5220;43.192;23.284;2023-07-31T01:44:18;4.38;;;3.20;;
10347;SDS011;5220;43.192;23.284;2023-07-31T01:46:45;3.75;;;3.45;;
10347;SDS011;5220;43.192;23.284;2023-07-31T01:49:12;4.28;;;3.85;;
10347;SDS011;5220;43.192;23.284;2023-07-31T01:51:38;3.97;;;3.67;;
10347;SDS011;5220;43.192;23.284;2023-07-31T01:54:05;4.20;;;3.80;;
10347;SDS011;5220;43.192;23.284;2023-07-31T01:56:32;4.13;;;3.83;;
10347;SDS011;5220;43.192;23.284;2023-07-31T01:58:59;4.32;;;3.63;;
10347;SDS011;5220;43.192;23.284;2023-07-31T02:01:27;4.50;;;4.15;;
10347;SDS011;5220;43.192;23.284;2023-07-31T02:03:53;4.45;;;4.05;;
10347;SDS011;5220;43.192;23.284;2023-07-31T02:06:20;5.03;;;4.03;;
10347;SDS011;5220;43.192;23.284;2023-07-31T02:08:47;6.03;;;3.70;;
10347;SDS011;5220;43.192;23.284;2023-07-31T02:11:14;4.43;;;3.85;;
10347;SDS011;5220;43.192;23.284;2023-07-31T02:13:41;4.38;;;3.42;;
10347;SDS011;5220;43.192;23.284;2023-07-31T02:16:07;4.10;;;3.80;;
10347;SDS011;5220;43.192;23.284;2023-07-31T02:18:35;5.63;;;4.18;;
10347;SDS011;5220;43.192;23.284;2023-07-31T02:21:02;4.18;;;3.88;;
10347;SDS011;5220;43.192;23.284;2023-07-31T02:23:29;7.25;;;3.75;;
10347;SDS011;5220;43.192;23.284;2023-07-31T02:25:56;4.88;;;3.97;;
10347;SDS011;5220;43.192;23.284;2023-07-31T02:28:22;5.10;;;3.63;;
10347;SDS011;5220;43.192;23.284;2023-07-31T02:30:49;3.45;;;3.25;;
10347;SDS011;5220;43.192;23.284;2023-07-31T02:33:16;4.32;;;3.83;;
10347;SDS011;5220;43.192;23.284;2023-07-31T02:35:44;4.60;;;4.20;;
10347;SDS011;5220;43.192;23.284;2023-07-31T02:38:11;4.47;;;3.47;;
10347;SDS011;5220;43.192;23.284;2023-07-31T02:40:38;4.55;;;4.10;;
10347;SDS011;5220;43.192;23.284;2023-07-31T02:43:06;4.30;;;3.90;;
10347;SDS011;5220;43.192;23.284;2023-07-31T02:45:33;5.68;;;3.80;;
10347;SDS011;5220;43.192;23.284;2023-07-31T02:47:59;4.20;;;3.90;;
10347;SDS011;5220;43.192;23.284;2023-07-31T02:50:26;5.90;;;5.30;;
10347;SDS011;5220;43.192;23.284;2023-07-31T02:52:55;5.55;;;5.15;;
10347;SDS011;5220;43.192;23.284;2023-07-31T02:55:21;6.63;;;6.00;;
10347;SDS011;5220;43.192;23.284;2023-07-31T02:57:48;6.88;;;6.25;;
10347;SDS011;5220;43.192;23.284;2023-07-31T03:00:17;6.65;;;5.63;;
10347;SDS011;5220;43.192;23.284;2023-07-31T03:02:43;7.20;;;6.50;;
10347;SDS011;5220;43.192;23.284;2023-07-31T03:05:10;7.03;;;6.43;;
10347;SDS011;5220;43.192;23.284;2023-07-31T03:07:37;7.13;;;6.53;;
10347;SDS011;5220;43.192;23.284;2023-07-31T03:10:06;6.88;;;6.28;;
10347;SDS011;5220;43.192;23.284;2023-07-31T03:12:33;8.23;;;6.78;;
10347;SDS011;5220;43.192;23.284;2023-07-31T03:15:00;7.13;;;6.53;;
10347;SDS011;5220;43.192;23.284;2023-07-31T03:17:26;7.18;;;6.47;;
10347;SDS011;5220;43.192;23.284;2023-07-31T03:19:53;7.00;;;6.50;;
10347;SDS011;5220;43.192;23.284;2023-07-31T03:22:20;9.77;;;7.45;;
10347;SDS011;5220;43.192;23.284;2023-07-31T03:24:47;8.25;;;7.57;;
10347;SDS011;5220;43.192;23.284;2023-07-31T03:27:15;8.27;;;7.57;;
10347;SDS011;5220;43.192;23.284;2023-07-31T03:29:41;8.07;;;7.47;;
10347;SDS011;5220;43.192;23.284;2023-07-31T03:32:08;8.70;;;8.00;;
10347;SDS011;5220;43.192;23.284;2023-07-31T03:34:35;7.70;;;6.82;;
10347;SDS011;5220;43.192;23.284;2023-07-31T03:37:01;8.48;;;6.55;;
10347;SDS011;5220;43.192;23.284;2023-07-31T03:39:30;8.00;;;5.93;;
10347;SDS011;5220;43.192;23.284;2023-07-31T03:41:56;6.88;;;6.18;;
10347;SDS011;5220;43.192;23.284;2023-07-31T03:44:24;7.22;;;6.53;;
10347;SDS011;5220;43.192;23.284;2023-07-31T03:46:51;7.25;;;6.65;;
10347;SDS011;5220;43.192;23.284;2023-07-31T03:49:18;8.48;;;7.78;;
10347;SDS011;5220;43.192;23.284;2023-07-31T03:51:45;7.78;;;6.97;;
10347;SDS011;5220;43.192;23.284;2023-07-31T03:54:11;8.25;;;7.45;;
10347;SDS011;5220;43.192;23.284;2023-07-31T03:56:39;7.53;;;6.95;;
10347;SDS011;5220;43.192;23.284;2023-07-31T03:59:05;7.88;;;7.18;;
10347;SDS011;5220;43.192;23.284;2023-07-31T04:01:33;7.53;;;6.78;;
10347;SDS011;5220;43.192;23.284;2023-07-31T04:04:00;7.75;;;7.05;;
10347;SDS011;5220;43.192;23.284;2023-07-31T04:06:27;8.07;;;7.28;;
10347;SDS011;5220;43.192;23.284;2023-07-31T04:08:54;8.48;;;7.43;;
10347;SDS011;5220;43.192;23.284;2023-07-31T04:11:20;7.68;;;6.95;;
10347;SDS011;5220;43.192;23.284;2023-07-31T04:13:47;8.65;;;7.78;;
10347;SDS011;5220;43.192;23.284;2023-07-31T04:16:14;8.15;;;7.35;;
10347;SDS011;5220;43.192;23.284;2023-07-31T04:18:42;9.43;;;8.20;;
10347;SDS011;5220;43.192;23.284;2023-07-31T04:21:08;10.00;;;9.00;;
10347;SDS011;5220;43.192;23.284;2023-07-31T04:23:35;10.68;;;9.68;;
10347;SDS011;5220;43.192;23.284;2023-07-31T04:26:02;12.70;;;11.18;;
10347;SDS011;5220;43.192;23.284;2023-07-31T04:28:29;17.20;;;13.60;;
10347;SDS011;5220;43.192;23.284;2023-07-31T04:30:56;11.57;;;10.60;;
10347;SDS011;5220;43.192;23.284;2023-07-31T04:33:23;10.55;;;9.65;;
10347;SDS011;5220;43.192;23.284;2023-07-31T04:35:52;11.43;;;10.02;;
10347;SDS011;5220;43.192;23.284;2023-07-31T04:38:19;11.20;;;10.20;;
10347;SDS011;5220;43.192;23.284;2023-07-31T04:40:46;11.00;;;10.00;;
10347;SDS011;5220;43.192;23.284;2023-07-31T04:43:13;10.88;;;9.98;;
10347;SDS011;5220;43.192;23.284;2023-07-31T04:45:41;11.30;;;9.52;;
10347;SDS011;5220;43.192;23.284;2023-07-31T04:48:11;10.55;;;9.68;;
10347;SDS011;5220;43.192;23.284;2023-07-31T04:50:37;10.85;;;9.77;;
10347;SDS011;5220;43.192;23.284;2023-07-31T04:53:05;11.07;;;10.02;;
10347;SDS011;5220;43.192;23.284;2023-07-31T04:55:32;10.85;;;9.38;;
10347;SDS011;5220;43.192;23.284;2023-07-31T04:57:59;10.57;;;9.65;;
10347;SDS011;5220;43.192;23.284;2023-07-31T05:00:26;9.43;;;8.52;;
10347;SDS011;5220;43.192;23.284;2023-07-31T05:02:52;10.52;;;9.52;;
10347;SDS011;5220;43.192;23.284;2023-07-31T05:05:19;10.50;;;9.60;;
10347;SDS011;5220;43.192;23.284;2023-07-31T05:07:46;12.25;;;9.40;;
10347;SDS011;5220;43.192;23.284;2023-07-31T05:10:14;9.05;;;8.27;;
10347;SDS011;5220;43.192;23.284;2023-07-31T05:12:40;9.57;;;8.75;;
10347;SDS011;5220;43.192;23.284;2023-07-31T05:15:08;9.20;;;8.30;;
10347;SDS011;5220;43.192;23.284;2023-07-31T05:17:35;9.90;;;8.48;;
10347;SDS011;5220;43.192;23.284;2023-07-31T05:20:02;8.65;;;7.95;;
10347;SDS011;5220;43.192;23.284;2023-07-31T05:22:29;7.85;;;7.13;;
10347;SDS011;5220;43.192;23.284;2023-07-31T05:24:55;7.40;;;6.80;;
10347;SDS011;5220;43.192;23.284;2023-07-31T05:27:24;7.70;;;6.45;;
10347;SDS011;5220;43.192;23.284;2023-07-31T05:29:50;7.20;;;6.60;;
10347;SDS011;5220;43.192;23.284;2023-07-31T05:32:17;7.07;;;6.45;;
10347;SDS011;5220;43.192;23.284;2023-07-31T05:34:44;7.35;;;6.78;;
10347;SDS011;5220;43.192;23.284;2023-07-31T05:37:10;9.18;;;6.95;;
10347;SDS011;5220;43.192;23.284;2023-07-31T05:39:37;7.40;;;6.80;;
10347;SDS011;5220;43.192;23.284;2023-07-31T05:42:04;8.50;;;7.50;;
10347;SDS011;5220;43.192;23.284;2023-07-31T05:44:33;7.65;;;6.95;;
10347;SDS011;5220;43.192;23.284;2023-07-31T05:46:59;7.05;;;6.47;;
10347;SDS011;5220;43.192;23.284;2023-07-31T05:49:26;7.38;;;6.65;;
10347;SDS011;5220;43.192;23.284;2023-07-31T05:51:53;5.28;;;4.57;;
10347;SDS011;5220;43.192;23.284;2023-07-31T05:54:20;5.40;;;4.90;;
10347;SDS011;5220;43.192;23.284;2023-07-31T05:56:46;6.18;;;4.53;;
10347;SDS011;5220;43.192;23.284;2023-07-31T05:59:13;6.47;;;4.57;;
10347;SDS011;5220;43.192;23.284;2023-07-31T06:01:41;4.38;;;3.92;;
10347;SDS011;5220;43.192;23.284;2023-07-31T06:04:08;3.45;;;3.22;;
10347;SDS011;5220;43.192;23.284;2023-07-31T06:06:35;4.07;;;3.47;;
10347;SDS011;5220;43.192;23.284;2023-07-31T06:09:02;3.33;;;3.05;;
10347;SDS011;5220;43.192;23.284;2023-07-31T06:11:29;11.50;;;3.67;;
10347;SDS011;5220;43.192;23.284;2023-07-31T06:13:56;9.63;;;3.00;;
10347;SDS011;5220;43.192;23.284;2023-07-31T06:16:23;4.32;;;2.88;;
10347;SDS011;5220;43.192;23.284;2023-07-31T06:18:51;4.35;;;2.95;;
10347;SDS011;5220;43.192;23.284;2023-07-31T06:21:18;7.47;;;3.40;;
10347;SDS011;5220;43.192;23.284;2023-07-31T06:23:44;3.15;;;2.83;;
10347;SDS011;5220;43.192;23.284;2023-07-31T06:26:11;3.72;;;2.70;;
10347;SDS011;5220;43.192;23.284;2023-07-31T06:28:38;3.03;;;2.78;;
10347;SDS011;5220;43.192;23.284;2023-07-31T06:31:06;3.10;;;2.90;;
10347;SDS011;5220;43.192;23.284;2023-07-31T06:33:32;3.55;;;3.25;;
10347;SDS011;5220;43.192;23.284;2023-07-31T06:36:00;2.83;;;2.60;;
10347;SDS011;5220;43.192;23.284;2023-07-31T06:38:27;4.82;;;2.88;;
10347;SDS011;5220;43.192;23.284;2023-07-31T06:40:54;4.03;;;2.88;;
10347;SDS011;5220;43.192;23.284;2023-07-31T06:43:20;6.88;;;3.55;;
10347;SDS011;5220;43.192;23.284;2023-07-31T06:45:48;30.52;;;27.50;;
10347;SDS011;5220;43.192;23.284;2023-07-31T06:48:16;3.72;;;2.83;;
10347;SDS011;5220;43.192;23.284;2023-07-31T06:50:43;2.70;;;2.50;;
10347;SDS011;5220;43.192;23.284;2023-07-31T06:53:11;6.10;;;2.92;;
10347;SDS011;5220;43.192;23.284;2023-07-31T06:55:37;2.80;;;2.30;;
10347;SDS011;5220;43.192;23.284;2023-07-31T06:58:04;2.38;;;2.28;;
10347;SDS011;5220;43.192;23.284;2023-07-31T07:00:31;3.35;;;2.22;;
10347;SDS011;5220;43.192;23.284;2023-07-31T07:02:58;13.68;;;3.25;;
10347;SDS011;5220;43.192;23.284;2023-07-31T07:05:25;2.35;;;2.15;;
10347;SDS011;5220;43.192;23.284;2023-07-31T07:07:52;2.10;;;2.00;;
10347;SDS011;5220;43.192;23.284;2023-07-31T07:10:20;2.80;;;2.00;;
10347;SDS011;5220;43.192;23.284;2023-07-31T07:12:47;2.25;;;2.08;;
10347;SDS011;5220;43.192;23.284;2023-07-31T07:15:15;2.15;;;2.03;;
10347;SDS011;5220;43.192;23.284;2023-07-31T07:17:42;2.25;;;2.10;;
10347;SDS011;5220;43.192;23.284;2023-07-31T07:20:08;2.10;;;1.90;;
10347;SDS011;5220;43.192;23.284;2023-07-31T07:22:35;2.13;;;1.80;;
10347;SDS011;5220;43.192;23.284;2023-07-31T07:25:03;1.77;;;1.67;;
10347;SDS011;5220;43.192;23.284;2023-07-31T07:27:31;2.70;;;1.90;;
10347;SDS011;5220;43.192;23.284;2023-07-31T07:29:58;3.05;;;1.80;;
10347;SDS011;5220;43.192;23.284;2023-07-31T07:32:25;2.03;;;1.70;;
10347;SDS011;5220;43.192;23.284;2023-07-31T07:34:51;2.92;;;1.83;;
10347;SDS011;5220;43.192;23.284;2023-07-31T07:37:18;1.90;;;1.80;;
10347;SDS011;5220;43.192;23.284;2023-07-31T07:39:45;1.90;;;1.77;;
10347;SDS011;5220;43.192;23.284;2023-07-31T07:42:11;1.85;;;1.75;;
10347;SDS011;5220;43.192;23.284;2023-07-31T07:44:40;3.15;;;1.88;;
10347;SDS011;5220;43.192;23.284;2023-07-31T07:47:06;2.10;;;2.00;;
10347;SDS011;5220;43.192;23.284;2023-07-31T07:49:33;2.05;;;1.95;;
10347;SDS011;5220;43.192;23.284;2023-07-31T07:52:01;1.90;;;1.80;;
10347;SDS011;5220;43.192;23.284;2023-07-31T07:54:28;2.85;;;2.00;;
10347;SDS011;5220;43.192;23.284;2023-07-31T07:56:54;2.20;;;1.98;;
10347;SDS011;5220;43.192;23.284;2023-07-31T07:59:21;2.35;;;2.00;;
10347;SDS011;5220;43.192;23.284;2023-07-31T08:01:49;3.47;;;2.28;;
10347;SDS011;5220;43.192;23.284;2023-07-31T08:04:16;2.58;;;2.25;;
10347;SDS011;5220;43.192;23.284;2023-07-31T08:06:43;3.40;;;2.40;;
10347;SDS011;5220;43.192;23.284;2023-07-31T08:09:09;3.28;;;2.22;;
10347;SDS011;5220;43.192;23.284;2023-07-31T08:11:36;14.93;;;2.30;;
10347;SDS011;5220;43.192;23.284;2023-07-31T08:14:03;3.10;;;2.13;;
10347;SDS011;5220;43.192;23.284;2023-07-31T08:16:30;2.85;;;2.65;;
10347;SDS011;5220;43.192;23.284;2023-07-31T08:18:58;7.30;;;2.63;;
10347;SDS011;5220;43.192;23.284;2023-07-31T08:21:24;2.33;;;2.22;;
10347;SDS011;5220;43.192;23.284;2023-07-31T08:23:51;3.00;;;2.03;;
10347;SDS011;5220;43.192;23.284;2023-07-31T08:26:18;2.25;;;1.92;;
10347;SDS011;5220;43.192;23.284;2023-07-31T08:28:46;2.70;;;1.95;;
10347;SDS011;5220;43.192;23.284;2023-07-31T08:31:13;2.25;;;2.05;;
10347;SDS011;5220;43.192;23.284;2023-07-31T08:33:39;2.40;;;2.20;;
10347;SDS011;5220;43.192;23.284;2023-07-31T08:36:07;3.83;;;2.38;;
10347;SDS011;5220;43.192;23.284;2023-07-31T08:38:34;2.13;;;1.90;;
10347;SDS011;5220;43.192;23.284;2023-07-31T08:41:02;3.15;;;2.45;;
10347;SDS011;5220;43.192;23.284;2023-07-31T08:43:29;2.65;;;2.08;;
10347;SDS011;5220;43.192;23.284;2023-07-31T08:45:57;2.35;;;2.17;;
10347;SDS011;5220;43.192;23.284;2023-07-31T08:48:24;2.20;;;2.10;;
10347;SDS011;5220;43.192;23.284;2023-07-31T08:50:51;3.45;;;2.25;;
10347;SDS011;5220;43.192;23.284;2023-07-31T08:53:20;4.60;;;2.53;;
10347;SDS011;5220;43.192;23.284;2023-07-31T08:55:48;5.82;;;2.65;;
10347;SDS011;5220;43.192;23.284;2023-07-31T08:58:15;6.63;;;2.53;;
10347;SDS011;5220;43.192;23.284;2023-07-31T09:00:43;3.80;;;3.20;;
10347;SDS011;5220;43.192;23.284;2023-07-31T09:03:13;5.00;;;2.67;;
10347;SDS011;5220;43.192;23.284;2023-07-31T09:05:42;2.78;;;2.30;;
10347;SDS011;5220;43.192;23.284;2023-07-31T09:08:09;2.38;;;2.25;;
10347;SDS011;5220;43.192;23.284;2023-07-31T09:10:41;3.03;;;2.42;;
10347;SDS011;5220;43.192;23.284;2023-07-31T09:13:08;2.38;;;2.20;;
10347;SDS011;5220;43.192;23.284;2023-07-31T09:15:35;2.65;;;2.45;;
10347;SDS011;5220;43.192;23.284;2023-07-31T09:18:03;2.95;;;2.75;;
10347;SDS011;5220;43.192;23.284;2023-07-31T09:20:31;2.97;;;2.30;;
10347;SDS011;5220;43.192;23.284;2023-07-31T09:23:04;2.78;;;2.58;;
10347;SDS011;5220;43.192;23.284;2023-07-31T09:25:33;8.38;;;7.55;;
10347;SDS011;5220;43.192;23.284;2023-07-31T09:28:03;4.15;;;2.45;;
10347;SDS011;5220;43.192;23.284;2023-07-31T09:30:32;3.30;;;2.60;;
10347;SDS011;5220;43.192;23.284;2023-07-31T09:33:11;3.25;;;2.58;;
10347;SDS011;5220;43.192;23.284;2023-07-31T09:35:38;2.50;;;2.30;;
10347;SDS011;5220;43.192;23.284;2023-07-31T09:38:07;6.07;;;3.45;;
10347;SDS011;5220;43.192;23.284;2023-07-31T09:40:36;3.00;;;2.80;;
10347;SDS011;5220;43.192;23.284;2023-07-31T09:43:05;4.38;;;3.55;;
10347;SDS011;5220;43.192;23.284;2023-07-31T09:45:34;2.60;;;2.40;;
10347;SDS011;5220;43.192;23.284;2023-07-31T09:48:02;2.33;;;2.22;;
10347;SDS011;5220;43.192;23.284;2023-07-31T09:50:29;2.38;;;2.20;;
10347;SDS011;5220;43.192;23.284;2023-07-31T09:52:56;2.92;;;2.30;;
10347;SDS011;5220;43.192;23.284;2023-07-31T09:55:23;7.80;;;3.05;;
10347;SDS011;5220;43.192;23.284;2023-07-31T09:57:50;2.30;;;2.10;;
10347;SDS011;5220;43.192;23.284;2023-07-31T10:00:18;2.42;;;2.30;;
10347;SDS011;5220;43.192;23.284;2023-07-31T10:02:47;2.10;;;2.00;;
10347;SDS011;5220;43.192;23.284;2023-07-31T10:05:16;2.38;;;2.20;;
10347;SDS011;5220;43.192;23.284;2023-07-31T10:07:45;3.33;;;2.70;;
10347;SDS011;5220;43.192;23.284;2023-07-31T10:10:19;4.28;;;2.40;;
10347;SDS011;5220;43.192;23.284;2023-07-31T10:12:46;3.50;;;2.05;;
10347;SDS011;5220;43.192;23.284;2023-07-31T10:15:14;6.45;;;2.08;;
10347;SDS011;5220;43.192;23.284;2023-07-31T10:17:44;1.85;;;1.75;;
10347;SDS011;5220;43.192;23.284;2023-07-31T10:20:12;3.05;;;2.10;;
10347;SDS011;5220;43.192;23.284;2023-07-31T10:22:41;2.22;;;2.03;;
10347;SDS011;5220;43.192;23.284;2023-07-31T10:25:09;2.38;;;2.28;;
10347;SDS011;5220;43.192;23.284;2023-07-31T10:27:36;2.63;;;2.45;;
10347;SDS011;5220;43.192;23.284;2023-07-31T10:30:05;2.15;;;1.80;;
10347;SDS011;5220;43.192;23.284;2023-07-31T10:32:34;2.15;;;2.05;;
10347;SDS011;5220;43.192;23.284;2023-07-31T10:35:02;2.10;;;1.80;;
10347;SDS011;5220;43.192;23.284;2023-07-31T10:37:37;2.20;;;2.10;;
10347;SDS011;5220;43.192;23.284;2023-07-31T10:40:06;2.25;;;1.90;;
10347;SDS011;5220;43.192;23.284;2023-07-31T10:42:44;2.33;;;2.10;;
10347;SDS011;5220;43.192;23.284;2023-07-31T10:45:12;3.25;;;2.30;;
10347;SDS011;5220;43.192;23.284;2023-07-31T10:47:42;2.17;;;2.00;;
10347;SDS011;5220;43.192;23.284;2023-07-31T10:50:16;2.70;;;2.28;;
10347;SDS011;5220;43.192;23.284;2023-07-31T10:52:48;2.80;;;2.00;;
10347;SDS011;5220;43.192;23.284;2023-07-31T10:55:24;2.00;;;1.90;;
10347;SDS011;5220;43.192;23.284;2023-07-31T10:57:53;1.90;;;1.80;;
10347;SDS011;5220;43.192;23.284;2023-07-31T11:00:21;1.90;;;1.70;;
10347;SDS011;5220;43.192;23.284;2023-07-31T11:02:59;7.45;;;2.10;;
10347;SDS011;5220;43.192;23.284;2023-07-31T11:05:44;1.90;;;1.80;;
10347;SDS011;5220;43.192;23.284;2023-07-31T11:08:12;1.70;;;1.60;;
10347;SDS011;5220;43.192;23.284;2023-07-31T11:10:40;3.78;;;1.80;;
10347;SDS011;5220;43.192;23.284;2023-07-31T11:13:08;1.83;;;1.65;;
10347;SDS011;5220;43.192;23.284;2023-07-31T11:15:34;2.25;;;2.00;;
10347;SDS011;5220;43.192;23.284;2023-07-31T11:18:01;4.00;;;2.10;;
10347;SDS011;5220;43.192;23.284;2023-07-31T11:20:30;3.05;;;2.10;;
10347;SDS011;5220;43.192;23.284;2023-07-31T11:23:00;2.22;;;2.05;;
10347;SDS011;5220;43.192;23.284;2023-07-31T11:25:28;2.08;;;1.88;;
10347;SDS011;5220;43.192;23.284;2023-07-31T11:27:56;2.17;;;1.98;;
10347;SDS011;5220;43.192;23.284;2023-07-31T11:30:23;1.90;;;1.80;;
10347;SDS011;5220;43.192;23.284;2023-07-31T11:32:50;3.10;;;2.03;;
10347;SDS011;5220;43.192;23.284;2023-07-31T11:35:17;2.80;;;2.08;;
10347;SDS011;5220;43.192;23.284;2023-07-31T11:37:44;2.75;;;2.00;;
10347;SDS011;5220;43.192;23.284;2023-07-31T11:40:13;2.83;;;1.80;;
10347;SDS011;5220;43.192;23.284;2023-07-31T11:42:39;2.30;;;2.13;;
10347;SDS011;5220;43.192;23.284;2023-07-31T11:45:07;4.05;;;2.00;;
10347;SDS011;5220;43.192;23.284;2023-07-31T11:47:35;1.77;;;1.67;;
10347;SDS011;5220;43.192;23.284;2023-07-31T11:50:03;2.05;;;1.95;;
10347;SDS011;5220;43.192;23.284;2023-07-31T11:52:32;2.25;;;2.05;;
10347;SDS011;5220;43.192;23.284;2023-07-31T11:55:04;2.95;;;2.13;;
10347;SDS011;5220;43.192;23.284;2023-07-31T11:57:36;2.30;;;2.20;;
10347;SDS011;5220;43.192;23.284;2023-07-31T12:00:04;2.00;;;1.90;;
10347;SDS011;5220;43.192;23.284;2023-07-31T12:02:33;2.88;;;2.15;;
10347;SDS011;5220;43.192;23.284;2023-07-31T12:05:00;2.60;;;2.40;;
10347;SDS011;5220;43.192;23.284;2023-07-31T12:07:27;2.00;;;1.90;;
10347;SDS011;5220;43.192;23.284;2023-07-31T12:10:08;3.45;;;2.08;;
10347;SDS011;5220;43.192;23.284;2023-07-31T12:12:36;2.00;;;1.90;;
10347;SDS011;5220;43.192;23.284;2023-07-31T12:15:12;2.42;;;2.05;;
10347;SDS011;5220;43.192;23.284;2023-07-31T12:17:41;2.08;;;1.98;;
10347;SDS011;5220;43.192;23.284;2023-07-31T12:20:08;2.30;;;2.20;;
10347;SDS011;5220;43.192;23.284;2023-07-31T12:22:35;1.92;;;1.83;;
10347;SDS011;5220;43.192;23.284;2023-07-31T12:25:03;1.75;;;1.65;;
10347;SDS011;5220;43.192;23.284;2023-07-31T12:27:32;1.95;;;1.85;;
10347;SDS011;5220;43.192;23.284;2023-07-31T12:30:01;2.03;;;1.92;;
10347;SDS011;5220;43.192;23.284;2023-07-31T12:32:29;3.10;;;2.17;;
10347;SDS011;5220;43.192;23.284;2023-07-31T12:34:59;3.70;;;2.15;;
10347;SDS011;5220;43.192;23.284;2023-07-31T12:37:26;2.80;;;2.60;;
10347;SDS011;5220;43.192;23.284;2023-07-31T12:39:53;2.40;;;2.20;;
10347;SDS011;5220;43.192;23.284;2023-07-31T12:42:20;2.45;;;2.25;;
10347;SDS011;5220;43.192;23.284;2023-07-31T12:44:47;2.25;;;2.08;;
10347;SDS011;5220;43.192;23.284;2023-07-31T12:47:15;2.72;;;2.53;;
10347;SDS011;5220;43.192;23.284;2023-07-31T12:49:42;2.70;;;2.50;;
10347;SDS011;5220;43.192;23.284;2023-07-31T12:52:08;5.10;;;2.78;;
10347;SDS011;5220;43.192;23.284;2023-07-31T12:54:35;3.83;;;3.15;;
10347;SDS011;5220;43.192;23.284;2023-07-31T12:57:02;2.92;;;2.72;;
10347;SDS011;5220;43.192;23.284;2023-07-31T12:59:29;2.90;;;2.65;;
10347;SDS011;5220;43.192;23.284;2023-07-31T13:01:56;2.83;;;2.63;;
10347;SDS011;5220;43.192;23.284;2023-07-31T13:04:24;2.95;;;2.75;;
10347;SDS011;5220;43.192;23.284;2023-07-31T13:06:51;3.30;;;3.00;;
10347;SDS011;5220;43.192;23.284;2023-07-31T13:09:18;5.25;;;3.22;;
10347;SDS011;5220;43.192;23.284;2023-07-31T13:11:44;3.72;;;3.10;;
10347;SDS011;5220;43.192;23.284;2023-07-31T13:14:11;3.10;;;2.90;;
10347;SDS011;5220;43.192;23.284;2023-07-31T13:16:38;3.88;;;3.58;;
10347;SDS011;5220;43.192;23.284;2023-07-31T13:19:05;3.22;;;3.03;;
10347;SDS011;5220;43.192;23.284;2023-07-31T13:21:33;3.00;;;2.78;;
10347;SDS011;5220;43.192;23.284;2023-07-31T13:24:01;3.03;;;2.72;;
10347;SDS011;5220;43.192;23.284;2023-07-31T13:26:29;3.25;;;3.05;;
10347;SDS011;5220;43.192;23.284;2023-07-31T13:28:56;3.40;;;3.20;;
10347;SDS011;5220;43.192;23.284;2023-07-31T13:31:22;3.80;;;3.45;;
10347;SDS011;5220;43.192;23.284;2023-07-31T13:33:49;3.20;;;3.00;;
10347;SDS011;5220;43.192;23.284;2023-07-31T13:36:16;2.88;;;2.67;;
10347;SDS011;5220;43.192;23.284;2023-07-31T13:38:44;2.95;;;2.75;;
10347;SDS011;5220;43.192;23.284;2023-07-31T13:41:11;2.67;;;2.50;;
10347;SDS011;5220;43.192;23.284;2023-07-31T13:43:37;2.50;;;2.40;;
10347;SDS011;5220;43.192;23.284;2023-07-31T13:46:04;2.83;;;2.42;;
10347;SDS011;5220;43.192;23.284;2023-07-31T13:48:34;2.92;;;2.42;;
10347;SDS011;5220;43.192;23.284;2023-07-31T13:51:01;3.05;;;2.30;;
10347;SDS011;5220;43.192;23.284;2023-07-31T13:53:28;2.75;;;2.55;;
10347;SDS011;5220;43.192;23.284;2023-07-31T13:55:56;2.50;;;2.30;;
10347;SDS011;5220;43.192;23.284;2023-07-31T13:58:23;2.78;;;2.58;;
10347;SDS011;5220;43.192;23.284;2023-07-31T14:00:50;2.65;;;2.45;;
10347;SDS011;5220;43.192;23.284;2023-07-31T14:03:16;2.47;;;2.30;;
10347;SDS011;5220;43.192;23.284;2023-07-31T14:05:43;5.28;;;2.65;;
10347;SDS011;5220;43.192;23.284;2023-07-31T14:08:10;2.33;;;2.22;;
10347;SDS011;5220;43.192;23.284;2023-07-31T14:10:37;3.47;;;2.80;;
10347;SDS011;5220;43.192;23.284;2023-07-31T14:13:05;10.75;;;2.58;;
10347;SDS011;5220;43.192;23.284;2023-07-31T14:15:31;3.15;;;2.20;;
10347;SDS011;5220;43.192;23.284;2023-07-31T14:18:00;2.47;;;2.33;;
10347;SDS011;5220;43.192;23.284;2023-07-31T14:20:27;3.63;;;3.15;;
10347;SDS011;5220;43.192;23.284;2023-07-31T14:22:54;2.70;;;2.50;;
10347;SDS011;5220;43.192;23.284;2023-07-31T14:25:21;2.95;;;2.70;;
10347;SDS011;5220;43.192;23.284;2023-07-31T14:27:48;3.85;;;2.40;;
10347;SDS011;5220;43.192;23.284;2023-07-31T14:30:16;2.80;;;2.60;;
10347;SDS011;5220;43.192;23.284;2023-07-31T14:32:43;2.38;;;2.28;;
10347;SDS011;5220;43.192;23.284;2023-07-31T14:35:10;2.80;;;2.60;;
10347;SDS011;5220;43.192;23.284;2023-07-31T14:37:37;2.08;;;1.98;;
10347;SDS011;5220;43.192;23.284;2023-07-31T14:40:06;2.75;;;2.55;;
10347;SDS011;5220;43.192;23.284;2023-07-31T14:42:34;2.65;;;2.45;;
10347;SDS011;5220;43.192;23.284;2023-07-31T14:45:01;2.55;;;2.30;;
10347;SDS011;5220;43.192;23.284;2023-07-31T14:47:29;4.15;;;2.30;;
10347;SDS011;5220;43.192;23.284;2023-07-31T14:49:57;2.38;;;2.15;;